Time;durP1;ratioP1;P1;durP2;ratioP2;P2;SDS_P1;SDS_P2;PMS_P1;PMS_P2;Temp;Humidity;BMP_temperature;BMP_pressure;BME280_temperature;BME280_humidity;BME280_pressure;Samples;Min_cycle;Max_cycle;Signal;HPM_P1;HPM_P2
2022/01/21 00:00:29;;;;;;;13.82;9.55;;;;;;;;;;5006897;28;20092;-70
2022/01/21 00:02:56;;;;;;;16.45;10.43;;;;;;;;;;5012465;28;20056;-70
2022/01/21 00:05:23;;;;;;;19.15;10.77;;;;;;;;;;5013356;28;20137;-70
2022/01/21 00:07:49;;;;;;;16.80;9.60;;;;;;;;;;5011029;28;20100;-70
2022/01/21 00:10:16;;;;;;;13.80;9.68;;;;;;;;;;5012306;28;20095;-70
2022/01/21 00:12:42;;;;;;;13.77;10.07;;;;;;;;;;5012403;28;20049;-70
2022/01/21 00:15:10;;;;;;;17.60;9.63;;;;;;;;;;5012458;28;20054;-70
2022/01/21 00:17:37;;;;;;;16.55;10.15;;;;;;;;;;5007533;28;20101;-71
2022/01/21 00:31:05;;;;;;;13.80;8.57;;;;;;;;;;5012760;28;20054;-70
2022/01/21 00:33:32;;;;;;;14.07;9.55;;;;;;;;;;5001889;28;20117;-70
2022/01/21 00:35:59;;;;;;;15.30;9.40;;;;;;;;;;5012364;28;20453;-70
2022/01/21 00:38:28;;;;;;;16.15;9.60;;;;;;;;;;5001604;28;20046;-70
2022/01/21 00:40:57;;;;;;;15.98;9.07;;;;;;;;;;5012443;28;20486;-70
2022/01/21 00:43:32;;;;;;;17.38;9.30;;;;;;;;;;5001181;28;20651;-70
2022/01/21 00:45:59;;;;;;;15.52;9.18;;;;;;;;;;5000634;28;20445;-70
2022/01/21 00:48:26;;;;;;;12.45;9.43;;;;;;;;;;5000949;28;20134;-70
2022/01/21 00:50:53;;;;;;;15.75;9.90;;;;;;;;;;5011123;28;20445;-70
2022/01/21 00:53:20;;;;;;;13.90;9.80;;;;;;;;;;5000951;28;20050;-70
2022/01/21 00:55:46;;;;;;;15.95;10.05;;;;;;;;;;5008394;28;20054;-71
2022/01/21 00:58:13;;;;;;;14.63;10.32;;;;;;;;;;5002524;28;20564;-70
2022/01/21 01:00:39;;;;;;;16.98;10.02;;;;;;;;;;5007761;28;20050;-69
2022/01/21 01:03:06;;;;;;;14.80;10.10;;;;;;;;;;5011245;28;20163;-70
2022/01/21 01:05:32;;;;;;;13.32;9.10;;;;;;;;;;5012104;28;20508;-71
2022/01/21 01:08:00;;;;;;;16.30;9.80;;;;;;;;;;4999213;28;20058;-70
2022/01/21 01:10:58;;;;;;;17.92;9.98;;;;;;;;;;5012110;28;20070;-71
2022/01/21 01:21:31;;;;;;;16.95;10.18;;;;;;;;;;5011185;28;20103;-71
2022/01/21 01:29:12;;;;;;;16.33;10.23;;;;;;;;;;5002062;28;20108;-71
2022/01/21 01:31:39;;;;;;;16.17;10.00;;;;;;;;;;5011080;28;20065;-71
2022/01/21 01:34:05;;;;;;;15.10;9.23;;;;;;;;;;5011252;28;20060;-71
2022/01/21 01:36:32;;;;;;;17.23;9.35;;;;;;;;;;5012116;28;20050;-71
2022/01/21 01:41:31;;;;;;;14.35;9.00;;;;;;;;;;5011665;28;20465;-71
2022/01/21 01:49:36;;;;;;;15.90;9.45;;;;;;;;;;4999592;28;20092;-70
2022/01/21 01:52:12;;;;;;;16.58;9.63;;;;;;;;;;5011890;28;20456;-71
2022/01/21 01:54:41;;;;;;;16.08;8.70;;;;;;;;;;4999970;28;20046;-71
2022/01/21 01:57:07;;;;;;;12.60;8.65;;;;;;;;;;5010572;28;20087;-71
2022/01/21 01:59:34;;;;;;;16.20;9.38;;;;;;;;;;4997192;28;20104;-71
2022/01/21 02:02:03;;;;;;;15.82;9.10;;;;;;;;;;5011386;28;20042;-71
2022/01/21 02:04:31;;;;;;;13.57;8.35;;;;;;;;;;5013634;28;20084;-71
2022/01/21 02:06:58;;;;;;;13.18;8.52;;;;;;;;;;5015322;28;20080;-71
2022/01/21 02:09:24;;;;;;;14.23;7.97;;;;;;;;;;5013577;28;20140;-71
2022/01/21 02:11:51;;;;;;;19.23;10.98;;;;;;;;;;5015167;28;20057;-71
2022/01/21 02:14:23;;;;;;;18.63;9.43;;;;;;;;;;5012984;28;20053;-71
2022/01/21 02:22:12;;;;;;;18.92;10.23;;;;;;;;;;5013987;28;20414;-70
2022/01/21 02:24:52;;;;;;;14.20;8.75;;;;;;;;;;5008253;28;20100;-70
2022/01/21 02:27:18;;;;;;;18.80;9.70;;;;;;;;;;5013701;28;20053;-71
2022/01/21 02:29:48;;;;;;;14.23;8.48;;;;;;;;;;5014783;28;20041;-70
2022/01/21 02:32:15;;;;;;;15.02;8.90;;;;;;;;;;5013589;28;20108;-71
2022/01/21 02:34:42;;;;;;;14.07;8.63;;;;;;;;;;5007344;28;20100;-70
2022/01/21 02:37:11;;;;;;;12.70;8.50;;;;;;;;;;5014354;28;20053;-70
2022/01/21 02:39:38;;;;;;;12.55;8.85;;;;;;;;;;5004980;28;20546;-70
2022/01/21 02:42:05;;;;;;;17.23;9.25;;;;;;;;;;5013989;28;20053;-70
2022/01/21 02:44:31;;;;;;;16.73;8.57;;;;;;;;;;5013809;28;20092;-70
2022/01/21 02:47:01;;;;;;;13.57;8.68;;;;;;;;;;5014480;28;20054;-70
2022/01/21 02:49:27;;;;;;;13.32;8.82;;;;;;;;;;5012416;28;20418;-70
2022/01/21 02:51:56;;;;;;;16.52;9.45;;;;;;;;;;5014281;28;20054;-70
2022/01/21 02:54:23;;;;;;;15.68;8.88;;;;;;;;;;5013179;28;20054;-70
2022/01/21 02:56:50;;;;;;;18.80;9.53;;;;;;;;;;5014550;28;20104;-70
2022/01/21 02:59:17;;;;;;;13.50;8.73;;;;;;;;;;5000801;28;20061;-70
2022/01/21 03:01:44;;;;;;;13.65;7.85;;;;;;;;;;5014549;28;20299;-70
2022/01/21 03:04:21;;;;;;;16.05;9.23;;;;;;;;;;5012898;28;20133;-70
2022/01/21 03:06:47;;;;;;;16.45;9.93;;;;;;;;;;5013833;28;20072;-70
2022/01/21 03:09:14;;;;;;;14.25;9.52;;;;;;;;;;5012687;28;20054;-70
2022/01/21 03:11:40;;;;;;;14.90;8.88;;;;;;;;;;5012879;28;20116;-70
2022/01/21 03:14:07;;;;;;;15.10;8.93;;;;;;;;;;5004362;28;20057;-70
2022/01/21 03:16:33;;;;;;;16.42;8.48;;;;;;;;;;5013444;28;20053;-70
2022/01/21 03:19:01;;;;;;;21.08;10.00;;;;;;;;;;5007579;28;20049;-70
2022/01/21 03:21:27;;;;;;;18.60;9.97;;;;;;;;;;5012733;28;20054;-70
2022/01/21 03:23:54;;;;;;;14.63;8.57;;;;;;;;;;5005224;28;20050;-70
2022/01/21 03:26:25;;;;;;;14.32;8.90;;;;;;;;;;5012776;28;20457;-70
2022/01/21 03:28:53;;;;;;;14.73;9.15;;;;;;;;;;5012550;28;20504;-70
2022/01/21 03:31:19;;;;;;;;;;;;;;;;;;5014471;28;20104;-70
2022/01/21 03:33:46;;;;;;;16.27;9.15;;;;;;;;;;5003843;28;19927;-70
2022/01/21 03:36:13;;;;;;;15.02;8.95;;;;;;;;;;5013307;28;20493;-70
2022/01/21 03:38:39;;;;;;;15.55;8.70;;;;;;;;;;5012498;28;20053;-70
2022/01/21 03:41:06;;;;;;;16.00;9.55;;;;;;;;;;5013226;28;20049;-70
2022/01/21 03:43:33;;;;;;;13.65;8.18;;;;;;;;;;5012357;28;20046;-70
2022/01/21 03:46:00;;;;;;;16.85;8.52;;;;;;;;;;5013510;28;20053;-70
2022/01/21 03:48:26;;;;;;;16.25;9.38;;;;;;;;;;5012028;28;20041;-70
2022/01/21 03:50:53;;;;;;;13.35;8.90;;;;;;;;;;5012383;28;20050;-70
2022/01/21 03:53:19;;;;;;;13.32;8.73;;;;;;;;;;5012426;28;20054;-70
2022/01/21 03:55:46;;;;;;;14.73;8.20;;;;;;;;;;5013395;28;20046;-70
2022/01/21 03:58:13;;;;;;;16.42;8.00;;;;;;;;;;5003809;28;20502;-70
2022/01/21 04:00:41;;;;;;;12.95;8.23;;;;;;;;;;5006679;28;20448;-69
2022/01/21 04:03:07;;;;;;;17.17;8.10;;;;;;;;;;5012785;28;20050;-70
2022/01/21 04:05:34;;;;;;;13.73;8.73;;;;;;;;;;5013309;28;20107;-70
2022/01/21 04:08:04;;;;;;;14.70;8.83;;;;;;;;;;5011816;28;20050;-70
2022/01/21 04:10:31;;;;;;;11.95;7.85;;;;;;;;;;5012350;28;20575;-70
2022/01/21 04:12:57;;;;;;;10.75;7.25;;;;;;;;;;5011671;28;20050;-70
2022/01/21 04:15:24;;;;;;;15.30;8.00;;;;;;;;;;5012381;28;20050;-70
2022/01/21 04:17:50;;;;;;;15.30;8.88;;;;;;;;;;5007075;28;20050;-70
2022/01/21 04:20:17;;;;;;;13.90;7.50;;;;;;;;;;5012164;28;20081;-70
2022/01/21 04:22:43;;;;;;;13.45;7.82;;;;;;;;;;5007524;28;20042;-70
2022/01/21 04:25:10;;;;;;;15.50;8.18;;;;;;;;;;5010629;28;20042;-70
2022/01/21 04:27:36;;;;;;;12.65;7.78;;;;;;;;;;5008408;28;20410;-70
2022/01/21 04:30:04;;;;;;;12.70;7.43;;;;;;;;;;5008198;28;20099;-69
2022/01/21 04:32:31;;;;;;;15.23;7.65;;;;;;;;;;5011749;28;20084;-70
2022/01/21 04:34:57;;;;;;;11.48;6.68;;;;;;;;;;5012551;28;20564;-70
2022/01/21 04:37:24;;;;;;;13.88;7.78;;;;;;;;;;5009841;28;20053;-70
2022/01/21 04:39:57;;;;;;;12.15;7.03;;;;;;;;;;5005354;28;20107;-70
2022/01/21 04:47:39;;;;;;;13.05;6.75;;;;;;;;;;5011780;28;20042;-70
2022/01/21 04:50:10;;;;;;;11.70;6.60;;;;;;;;;;5011500;28;20041;-70
2022/01/21 04:52:37;;;;;;;12.05;7.47;;;;;;;;;;5011505;28;20097;-70
2022/01/21 04:55:04;;;;;;;11.00;6.45;;;;;;;;;;5012395;28;20100;-70
2022/01/21 04:57:31;;;;;;;13.07;7.18;;;;;;;;;;5010999;28;20053;-69
2022/01/21 04:59:57;;;;;;;16.00;8.18;;;;;;;;;;5010835;28;20108;-70
2022/01/21 05:02:26;;;;;;;11.90;7.00;;;;;;;;;;5011061;28;20621;-69
2022/01/21 05:04:52;;;;;;;10.82;6.70;;;;;;;;;;5012222;28;20049;-69
2022/01/21 05:07:23;;;;;;;14.98;7.25;;;;;;;;;;5010923;28;20045;-69
2022/01/21 05:09:49;;;;;;;11.18;7.40;;;;;;;;;;5010713;28;20137;-69
2022/01/21 05:12:19;;;;;;;12.70;6.53;;;;;;;;;;5010710;28;20045;-69
2022/01/21 05:17:19;;;;;;;10.70;7.25;;;;;;;;;;5011348;28;20131;-69
2022/01/21 05:19:45;;;;;;;13.50;7.15;;;;;;;;;;5012023;28;20050;-69
2022/01/21 05:22:12;;;;;;;11.65;7.25;;;;;;;;;;5010439;28;20050;-70
2022/01/21 05:24:38;;;;;;;15.63;7.53;;;;;;;;;;4998567;28;20041;-69
2022/01/21 05:27:06;;;;;;;11.25;6.68;;;;;;;;;;5011475;28;20123;-69
2022/01/21 05:29:33;;;;;;;11.27;6.97;;;;;;;;;;5011164;28;20098;-69
2022/01/21 05:32:01;;;;;;;12.18;7.25;;;;;;;;;;5011854;28;20057;-69
2022/01/21 05:34:27;;;;;;;12.55;7.78;;;;;;;;;;5010483;28;20123;-69
2022/01/21 05:36:54;;;;;;;7.70;5.50;;;;;;;;;;5011622;28;20073;-69
2022/01/21 05:39:21;;;;;;;8.38;6.40;;;;;;;;;;5012964;28;20054;-69
2022/01/21 05:41:51;;;;;;;10.70;6.30;;;;;;;;;;5015676;28;20054;-69
2022/01/21 05:46:59;;;;;;;9.93;6.03;;;;;;;;;;5016084;28;20041;-69
2022/01/21 05:49:27;;;;;;;9.40;6.18;;;;;;;;;;5014092;28;20100;-69
2022/01/21 05:52:00;;;;;;;13.13;6.55;;;;;;;;;;5015508;28;20045;-69
2022/01/21 05:54:27;;;;;;;11.10;6.10;;;;;;;;;;5014362;28;20050;-69
2022/01/21 05:56:54;;;;;;;10.68;6.63;;;;;;;;;;5015300;28;20042;-69
2022/01/21 05:59:21;;;;;;;12.25;6.03;;;;;;;;;;5013983;28;20061;-69
2022/01/21 06:01:48;;;;;;;11.20;6.97;;;;;;;;;;5015005;28;20054;-69
2022/01/21 06:04:14;;;;;;;8.10;5.97;;;;;;;;;;5013975;28;20124;-69
2022/01/21 06:06:41;;;;;;;10.15;6.03;;;;;;;;;;5015297;28;20445;-69
2022/01/21 06:09:08;;;;;;;11.40;6.47;;;;;;;;;;5007177;28;20104;-69
2022/01/21 06:11:35;;;;;;;10.57;5.75;;;;;;;;;;5015347;28;20403;-69
2022/01/21 06:14:02;;;;;;;8.90;6.40;;;;;;;;;;5014023;28;20057;-69
2022/01/21 06:16:29;;;;;;;9.02;5.72;;;;;;;;;;5015141;28;20054;-69
2022/01/21 06:18:56;;;;;;;8.93;5.90;;;;;;;;;;5013860;28;20590;-69
2022/01/21 06:21:22;;;;;;;9.32;5.80;;;;;;;;;;5015279;28;20053;-69
2022/01/21 06:23:49;;;;;;;11.88;7.70;;;;;;;;;;5002432;28;20045;-69
2022/01/21 06:26:15;;;;;;;8.98;6.47;;;;;;;;;;5014726;28;20092;-69
2022/01/21 06:28:42;;;;;;;13.63;7.03;;;;;;;;;;5013833;28;20050;-69
2022/01/21 06:31:08;;;;;;;9.77;6.35;;;;;;;;;;5015094;28;20045;-69
2022/01/21 06:33:35;;;;;;;10.32;6.07;;;;;;;;;;5014396;28;20460;-69
2022/01/21 06:36:01;;;;;;;10.02;5.78;;;;;;;;;;5014735;28;20096;-69
2022/01/21 06:38:28;;;;;;;10.90;5.57;;;;;;;;;;5003665;28;20085;-69
2022/01/21 06:40:54;;;;;;;9.32;6.55;;;;;;;;;;5012929;28;20042;-70
2022/01/21 06:43:21;;;;;;;9.32;5.88;;;;;;;;;;5013888;28;20112;-69
2022/01/21 06:45:48;;;;;;;8.98;6.22;;;;;;;;;;5014542;28;20054;-69
2022/01/21 06:48:14;;;;;;;12.65;6.82;;;;;;;;;;5013485;28;20042;-69
2022/01/21 06:50:41;;;;;;;8.05;5.60;;;;;;;;;;5013081;28;20081;-69
2022/01/21 06:53:08;;;;;;;8.98;5.90;;;;;;;;;;5013523;28;20061;-69
2022/01/21 06:55:35;;;;;;;9.57;6.10;;;;;;;;;;5011932;28;20049;-69
2022/01/21 06:58:02;;;;;;;7.95;5.65;;;;;;;;;;5007173;28;20108;-69
2022/01/21 07:00:29;;;;;;;9.63;5.80;;;;;;;;;;5014736;28;20053;-70
2022/01/21 07:02:55;;;;;;;9.63;5.70;;;;;;;;;;5012780;28;20056;-69
2022/01/21 07:05:22;;;;;;;12.38;6.60;;;;;;;;;;5013809;28;20077;-70
2022/01/21 07:07:49;;;;;;;7.30;5.47;;;;;;;;;;5009436;28;20046;-70
2022/01/21 07:10:16;;;;;;;10.35;6.20;;;;;;;;;;5011988;28;20070;-70
2022/01/21 07:12:44;;;;;;;10.90;6.10;;;;;;;;;;5008949;28;20108;-70
2022/01/21 07:15:11;;;;;;;8.77;5.72;;;;;;;;;;5009788;28;20481;-70
2022/01/21 07:17:38;;;;;;;9.60;5.40;;;;;;;;;;5013044;28;20104;-70
2022/01/21 07:20:04;;;;;;;10.90;5.72;;;;;;;;;;5013480;28;20054;-70
2022/01/21 07:22:31;;;;;;;7.85;5.65;;;;;;;;;;5012625;28;20095;-71
2022/01/21 07:24:58;;;;;;;10.43;5.70;;;;;;;;;;5013993;28;20093;-71
2022/01/21 07:27:24;;;;;;;11.02;5.85;;;;;;;;;;5010514;28;20050;-70
2022/01/21 07:29:50;;;;;;;6.85;5.18;;;;;;;;;;5014056;28;20046;-70
2022/01/21 07:32:17;;;;;;;9.70;6.40;;;;;;;;;;5012735;28;20050;-70
2022/01/21 07:34:43;;;;;;;9.55;6.00;;;;;;;;;;5012663;28;20117;-71
2022/01/21 07:37:10;;;;;;;11.52;6.22;;;;;;;;;;5011638;28;20561;-71
2022/01/21 07:39:36;;;;;;;7.90;5.28;;;;;;;;;;5006581;28;20457;-71
2022/01/21 07:42:03;;;;;;;10.48;6.10;;;;;;;;;;5013373;28;20046;-69
2022/01/21 07:44:30;;;;;;;10.73;6.30;;;;;;;;;;5012355;28;20053;-70
2022/01/21 07:46:56;;;;;;;9.13;6.00;;;;;;;;;;5011619;28;20107;-70
2022/01/21 07:49:23;;;;;;;11.48;6.80;;;;;;;;;;5008989;28;20053;-69
2022/01/21 07:51:49;;;;;;;10.40;5.55;;;;;;;;;;5013548;28;20103;-71
2022/01/21 07:54:16;;;;;;;10.20;6.07;;;;;;;;;;5002149;28;20045;-70
2022/01/21 07:56:42;;;;;;;10.07;6.07;;;;;;;;;;5012865;28;20057;-70
2022/01/21 07:59:10;;;;;;;15.48;7.10;;;;;;;;;;5012073;28;20505;-68
2022/01/21 08:01:37;;;;;;;;;;;;;;;;;;5012979;28;20081;-70
2022/01/21 08:04:03;;;;;;;7.93;5.50;;;;;;;;;;5009090;28;19921;-75
2022/01/21 08:06:30;;;;;;;7.15;5.35;;;;;;;;;;5013413;28;20124;-70
2022/01/21 08:08:57;;;;;;;9.23;5.47;;;;;;;;;;5011351;28;20580;-69
2022/01/21 08:11:24;;;;;;;9.60;5.57;;;;;;;;;;5012137;28;20093;-69
2022/01/21 08:13:50;;;;;;;11.63;7.03;;;;;;;;;;5011508;28;20046;-69
2022/01/21 08:16:17;;;;;;;15.30;8.50;;;;;;;;;;5012798;28;20494;-69
2022/01/21 08:18:44;;;;;;;22.70;10.57;;;;;;;;;;5008949;28;20406;-70
2022/01/21 08:21:18;;;;;;;18.50;10.93;;;;;;;;;;5012975;28;20081;-69
2022/01/21 08:23:48;;;;;;;14.52;8.93;;;;;;;;;;5011073;28;20046;-69
2022/01/21 08:26:17;;;;;;;16.10;7.50;;;;;;;;;;5013450;28;20552;-69
2022/01/21 08:28:45;;;;;;;11.27;6.03;;;;;;;;;;5010911;28;20037;-69
2022/01/21 08:31:12;;;;;;;13.27;8.30;;;;;;;;;;5011706;28;20050;-68
2022/01/21 08:33:38;;;;;;;13.98;8.32;;;;;;;;;;5001077;28;20050;-69
2022/01/21 08:36:07;;;;;;;12.25;7.10;;;;;;;;;;5011097;28;20111;-69
2022/01/21 08:38:34;;;;;;;10.73;6.03;;;;;;;;;;5009894;28;20494;-69
2022/01/21 08:41:00;;;;;;;9.63;6.20;;;;;;;;;;5009491;28;20049;-69
2022/01/21 08:43:27;;;;;;;12.07;6.60;;;;;;;;;;5011821;28;20054;-69
2022/01/21 08:45:53;;;;;;;14.93;7.53;;;;;;;;;;5010792;28;20137;-69
2022/01/21 08:48:20;;;;;;;13.43;8.90;;;;;;;;;;4999603;28;20050;-69
2022/01/21 08:50:47;;;;;;;14.68;9.90;;;;;;;;;;5011893;28;20107;-69
2022/01/21 08:55:58;;;;;;;14.75;8.15;;;;;;;;;;5007430;28;20057;-69
2022/01/21 08:58:25;;;;;;;16.98;8.40;;;;;;;;;;5011311;28;20045;-70
2022/01/21 09:00:52;;;;;;;16.65;8.57;;;;;;;;;;5011521;28;20049;-68
2022/01/21 09:03:19;;;;;;;14.80;8.23;;;;;;;;;;5011792;28;20046;-68
2022/01/21 09:05:49;;;;;;;13.70;8.48;;;;;;;;;;5011959;28;20046;-68
2022/01/21 09:08:16;;;;;;;14.18;8.45;;;;;;;;;;5010448;28;20092;-69
2022/01/21 09:10:42;;;;;;;13.90;8.47;;;;;;;;;;5011009;28;20049;-69
2022/01/21 09:13:09;;;;;;;13.88;8.05;;;;;;;;;;5010762;28;20104;-69
2022/01/21 09:15:36;;;;;;;11.70;8.80;;;;;;;;;;5011456;28;20050;-69
2022/01/21 09:18:05;;;;;;;14.48;8.35;;;;;;;;;;5011815;28;20053;-69
2022/01/21 09:20:32;;;;;;;13.65;8.27;;;;;;;;;;5009804;28;20206;-68
2022/01/21 09:22:59;;;;;;;11.70;7.63;;;;;;;;;;5011157;28;20100;-69
2022/01/21 09:25:26;;;;;;;17.48;9.05;;;;;;;;;;5011685;28;20085;-69
2022/01/21 09:27:52;;;;;;;18.02;10.63;;;;;;;;;;5011304;28;20050;-70
2022/01/21 09:30:19;;;;;;;12.40;7.88;;;;;;;;;;5011152;28;20108;-70
2022/01/21 09:32:46;;;;;;;14.88;10.32;;;;;;;;;;5010802;28;20092;-69
2022/01/21 09:35:12;;;;;;;15.02;9.40;;;;;;;;;;5009735;28;20123;-69
2022/01/21 09:37:39;;;;;;;15.25;10.70;;;;;;;;;;5010432;28;20053;-69
2022/01/21 09:40:05;;;;;;;14.38;10.23;;;;;;;;;;5010783;28;20061;-70
2022/01/21 09:42:33;;;;;;;15.00;10.60;;;;;;;;;;5010969;28;20100;-70
2022/01/21 09:45:00;;;;;;;15.05;10.25;;;;;;;;;;5011093;28;20050;-70
2022/01/21 09:47:27;;;;;;;13.15;8.95;;;;;;;;;;5010768;28;20096;-70
2022/01/21 09:49:54;;;;;;;14.73;9.32;;;;;;;;;;5011081;28;20042;-69
2022/01/21 09:52:21;;;;;;;19.00;10.70;;;;;;;;;;5011410;28;20062;-69
2022/01/21 09:54:48;;;;;;;18.67;11.10;;;;;;;;;;5011127;28;20042;-70
2022/01/21 09:57:17;;;;;;;15.03;10.37;;;;;;;;;;5011040;28;20133;-69
2022/01/21 09:59:44;;;;;;;15.70;10.80;;;;;;;;;;5011182;28;20042;-69
2022/01/21 10:02:10;;;;;;;17.83;12.02;;;;;;;;;;5010501;28;20045;-69
2022/01/21 10:04:38;;;;;;;21.80;13.90;;;;;;;;;;5009964;28;20049;-68
2022/01/21 10:07:05;;;;;;;24.02;15.48;;;;;;;;;;5011320;28;20482;-68
2022/01/21 10:09:32;;;;;;;19.48;14.75;;;;;;;;;;5010820;28;20050;-69
2022/01/21 10:11:59;;;;;;;27.58;20.88;;;;;;;;;;5010935;28;20046;-69
2022/01/21 10:14:27;;;;;;;32.95;22.27;;;;;;;;;;5010906;28;20556;-69
2022/01/21 10:16:54;;;;;;;29.30;21.13;;;;;;;;;;5011119;28;20096;-69
2022/01/21 10:19:27;;;;;;;27.48;18.88;;;;;;;;;;5010756;28;20057;-69
2022/01/21 10:22:00;;;;;;;29.48;18.85;;;;;;;;;;5009024;28;20395;-69
2022/01/21 10:24:28;;;;;;;27.98;19.40;;;;;;;;;;5012128;28;20150;-68
2022/01/21 10:26:55;;;;;;;29.65;20.42;;;;;;;;;;5014709;28;20042;-69
2022/01/21 10:29:22;;;;;;;24.00;16.40;;;;;;;;;;5014480;28;20046;-70
2022/01/21 10:31:59;;;;;;;21.58;15.18;;;;;;;;;;5014654;28;20038;-69
2022/01/21 10:34:35;;;;;;;20.40;14.05;;;;;;;;;;5014215;28;20513;-69
2022/01/21 10:37:07;;;;;;;21.05;14.68;;;;;;;;;;5014471;28;20057;-69
2022/01/21 10:39:52;;;;;;;22.70;19.00;;;;;;;;;;5014359;28;20111;-69
2022/01/21 10:42:23;;;;;;;20.73;17.35;;;;;;;;;;5014246;28;20492;-69
2022/01/21 10:44:50;;;;;;;20.20;15.73;;;;;;;;;;5014504;28;20045;-69
2022/01/21 10:47:17;;;;;;;19.95;15.52;;;;;;;;;;5012774;28;20494;-70
2022/01/21 10:49:55;;;;;;;21.48;15.15;;;;;;;;;;5013671;28;20155;-69
2022/01/21 10:52:57;;;;;;;21.77;14.85;;;;;;;;;;5012277;28;20046;-69
2022/01/21 10:55:32;;;;;;;18.48;14.25;;;;;;;;;;5010717;28;20050;-69
2022/01/21 10:58:03;;;;;;;20.92;15.85;;;;;;;;;;5013143;28;20085;-70
2022/01/21 11:00:29;;;;;;;19.08;14.45;;;;;;;;;;5014051;28;20529;-69
2022/01/21 11:03:07;;;;;;;17.58;14.05;;;;;;;;;;5013993;28;20076;-70
2022/01/21 11:05:39;;;;;;;18.50;14.45;;;;;;;;;;5013513;28;20052;-69
2022/01/21 11:08:11;;;;;;;20.05;14.50;;;;;;;;;;5013945;28;20124;-69
2022/01/21 11:10:39;;;;;;;21.83;16.50;;;;;;;;;;5013734;28;20560;-69
2022/01/21 11:13:26;;;;;;;17.27;14.55;;;;;;;;;;5013896;28;20057;-69
2022/01/21 11:15:58;;;;;;;19.03;15.07;;;;;;;;;;5013450;28;20054;-70
2022/01/21 11:19:06;;;;;;;21.02;14.63;;;;;;;;;;5013523;28;20141;-70
2022/01/21 11:21:32;;;;;;;;;;;;;;;;;;5010995;28;20050;-69
2022/01/21 11:24:05;;;;;;;20.25;16.55;;;;;;;;;;5013841;28;19925;-69
2022/01/21 11:26:32;;;;;;;20.58;16.13;;;;;;;;;;5013132;28;20046;-68
2022/01/21 11:29:00;;;;;;;24.17;17.58;;;;;;;;;;5012943;28;20050;-68
2022/01/21 11:31:27;;;;;;;23.30;17.25;;;;;;;;;;5012699;28;20406;-68
2022/01/21 11:34:08;;;;;;;20.00;16.70;;;;;;;;;;5013133;28;20053;-68
2022/01/21 11:36:34;;;;;;;19.08;15.73;;;;;;;;;;5012172;28;20437;-69
2022/01/21 11:39:01;;;;;;;22.77;17.25;;;;;;;;;;5013107;28;20161;-69
2022/01/21 11:41:28;;;;;;;23.65;17.65;;;;;;;;;;5012985;28;20053;-68
2022/01/21 11:44:00;;;;;;;20.08;15.90;;;;;;;;;;5013267;28;20100;-69
2022/01/21 11:49:08;;;;;;;16.75;12.95;;;;;;;;;;5013135;28;20054;-67
2022/01/21 11:51:36;;;;;;;19.83;13.75;;;;;;;;;;5013060;28;20041;-68
2022/01/21 11:54:13;;;;;;;20.73;12.07;;;;;;;;;;5013099;28;20058;-68
2022/01/21 11:56:57;;;;;;;25.45;13.75;;;;;;;;;;5012879;28;20112;-67
2022/01/21 11:59:52;;;;;;;19.17;9.82;;;;;;;;;;5012769;28;20064;-69
2022/01/21 12:02:21;;;;;;;8.63;3.83;;;;;;;;;;5012624;28;20103;-69
2022/01/21 12:04:51;;;;;;;7.43;2.80;;;;;;;;;;5012689;28;20053;-69
2022/01/21 12:07:44;;;;;;;4.63;2.72;;;;;;;;;;5012662;28;20553;-69
2022/01/21 12:10:14;;;;;;;7.50;3.95;;;;;;;;;;5012370;28;20432;-68
2022/01/21 12:12:53;;;;;;;7.72;3.60;;;;;;;;;;5012770;28;20053;-69
2022/01/21 12:15:25;;;;;;;5.05;3.08;;;;;;;;;;5012936;28;20387;-68
2022/01/21 12:18:04;;;;;;;12.45;4.82;;;;;;;;;;5010583;28;20063;-69
2022/01/21 12:20:31;;;;;;;8.10;4.20;;;;;;;;;;5003748;28;20054;-69
2022/01/21 12:23:12;;;;;;;7.32;3.35;;;;;;;;;;5012006;28;20074;-68
2022/01/21 12:25:57;;;;;;;7.07;3.33;;;;;;;;;;5005243;28;20107;-69
2022/01/21 12:28:24;;;;;;;18.65;7.18;;;;;;;;;;5011923;28;20129;-69
2022/01/21 12:30:53;;;;;;;12.32;5.63;;;;;;;;;;5012671;28;20105;-68
2022/01/21 12:33:20;;;;;;;10.80;4.85;;;;;;;;;;5011130;28;20112;-68
2022/01/21 12:35:48;;;;;;;16.02;7.43;;;;;;;;;;5012130;28;20497;-68
2022/01/21 12:41:23;;;;;;;18.00;8.13;;;;;;;;;;5012306;28;20502;-68
2022/01/21 12:43:53;;;;;;;32.50;14.93;;;;;;;;;;5006385;28;20053;-68
2022/01/21 12:46:22;;;;;;;17.38;7.97;;;;;;;;;;5012020;28;20050;-68
2022/01/21 12:48:50;;;;;;;21.38;10.18;;;;;;;;;;5011373;28;20049;-68
2022/01/21 12:51:21;;;;;;;24.55;10.68;;;;;;;;;;5012301;28;20058;-68
2022/01/21 12:56:42;;;;;;;27.65;14.13;;;;;;;;;;5011159;28;20053;-68
2022/01/21 12:59:14;;;;;;;71.22;39.90;;;;;;;;;;5011288;28;20188;-68
2022/01/21 13:01:40;;;;;;;17.77;10.45;;;;;;;;;;5012275;28;20049;-68
2022/01/21 13:04:11;;;;;;;10.27;6.50;;;;;;;;;;5003713;28;20486;-68
2022/01/21 13:06:41;;;;;;;14.77;7.65;;;;;;;;;;5008486;28;20041;-68
2022/01/21 13:09:13;;;;;;;11.23;5.88;;;;;;;;;;5011602;28;20053;-68
2022/01/21 13:11:42;;;;;;;11.20;6.68;;;;;;;;;;5011353;28;20054;-67
2022/01/21 13:14:25;;;;;;;8.77;4.97;;;;;;;;;;5011289;28;20104;-68
2022/01/21 13:16:55;;;;;;;7.10;3.83;;;;;;;;;;5011511;28;20453;-68
2022/01/21 13:19:22;;;;;;;9.43;4.22;;;;;;;;;;5008126;28;20081;-68
2022/01/21 13:21:48;;;;;;;4.78;2.42;;;;;;;;;;5011896;28;20568;-68
2022/01/21 13:24:38;;;;;;;7.63;2.50;;;;;;;;;;5009033;28;20054;-67
2022/01/21 13:27:01;;;;;;;8.30;4.10;;;;;;;;;;5010186;28;20069;-67
2022/01/21 13:29:30;;;;;;;7.78;3.90;;;;;;;;;;5011104;28;20049;-67
2022/01/21 13:31:57;;;;;;;9.13;3.60;;;;;;;;;;5011541;28;20100;-68
2022/01/21 13:34:31;;;;;;;10.57;3.80;;;;;;;;;;5011514;28;20128;-67
2022/01/21 13:36:59;;;;;;;8.75;4.07;;;;;;;;;;5011656;28;20057;-67
2022/01/21 13:39:25;;;;;;;7.45;3.40;;;;;;;;;;5011782;28;20100;-67
2022/01/21 13:42:00;;;;;;;10.23;3.92;;;;;;;;;;5011050;28;20603;-68
2022/01/21 13:44:46;;;;;;;7.75;4.13;;;;;;;;;;5011227;28;20461;-67
2022/01/21 13:47:25;;;;;;;8.63;4.68;;;;;;;;;;5007621;28;20104;-69
2022/01/21 13:49:51;;;;;;;7.40;4.18;;;;;;;;;;5011274;28;20093;-70
2022/01/21 13:52:18;;;;;;;8.20;4.40;;;;;;;;;;5011257;28;20046;-70
2022/01/21 13:54:46;;;;;;;8.07;4.63;;;;;;;;;;5011162;28;20058;-70
2022/01/21 13:57:12;;;;;;;;;;;;;;;;;;5011820;28;20079;-70
2022/01/21 13:59:46;;;;;;;11.45;5.40;;;;;;;;;;5012924;28;19922;-70
2022/01/21 14:02:14;;;;;;;11.77;5.15;;;;;;;;;;5014510;28;20054;-71
2022/01/21 14:04:53;;;;;;;12.10;4.70;;;;;;;;;;5009804;28;20502;-70
2022/01/21 14:07:22;;;;;;;14.50;6.13;;;;;;;;;;5014295;28;20050;-70
2022/01/21 14:09:49;;;;;;;15.32;6.80;;;;;;;;;;5014309;28;20050;-70
2022/01/21 14:12:15;;;;;;;14.68;5.88;;;;;;;;;;5014687;28;20045;-70
2022/01/21 14:14:42;;;;;;;13.38;5.40;;;;;;;;;;5014577;28;20115;-70
2022/01/21 14:17:08;;;;;;;8.93;4.40;;;;;;;;;;5014573;28;20100;-70
2022/01/21 14:19:38;;;;;;;16.70;5.97;;;;;;;;;;5014097;28;20050;-70
2022/01/21 14:22:08;;;;;;;13.95;4.63;;;;;;;;;;5014386;28;20132;-70
2022/01/21 14:24:44;;;;;;;7.30;4.18;;;;;;;;;;5011986;28;20046;-70
2022/01/21 14:27:18;;;;;;;11.50;4.90;;;;;;;;;;5014143;28;20518;-70
2022/01/21 14:29:48;;;;;;;10.80;5.38;;;;;;;;;;5014492;28;20081;-69
2022/01/21 14:32:15;;;;;;;14.82;8.57;;;;;;;;;;5014394;28;20505;-71
2022/01/21 14:34:43;;;;;;;14.73;6.63;;;;;;;;;;5014524;28;20053;-70
2022/01/21 14:37:12;;;;;;;13.35;8.00;;;;;;;;;;5014772;28;20111;-70
2022/01/21 14:39:40;;;;;;;10.95;6.90;;;;;;;;;;5014699;28;20046;-71
2022/01/21 14:42:08;;;;;;;12.50;6.22;;;;;;;;;;5013708;28;20548;-71
2022/01/21 14:44:42;;;;;;;10.77;5.57;;;;;;;;;;5013818;28;20103;-70
2022/01/21 14:47:13;;;;;;;10.55;6.10;;;;;;;;;;5014036;28;20441;-70
2022/01/21 14:49:41;;;;;;;9.68;6.20;;;;;;;;;;5013877;28;20053;-70
2022/01/21 14:55:11;;;;;;;11.50;5.45;;;;;;;;;;5014041;28;20460;-71
2022/01/21 14:57:37;;;;;;;11.38;5.25;;;;;;;;;;5014201;28;20084;-70
2022/01/21 15:00:07;;;;;;;8.82;5.20;;;;;;;;;;5013329;28;20053;-70
2022/01/21 15:02:35;;;;;;;14.40;5.35;;;;;;;;;;5013805;28;20053;-70
2022/01/21 15:05:04;;;;;;;9.57;4.97;;;;;;;;;;5013844;28;20099;-70
2022/01/21 15:07:31;;;;;;;10.23;4.22;;;;;;;;;;5013620;28;20470;-71
2022/01/21 15:10:16;;;;;;;10.48;4.95;;;;;;;;;;5013201;28;20054;-70
2022/01/21 15:15:27;;;;;;;10.98;4.72;;;;;;;;;;5012441;28;20049;-70
2022/01/21 15:17:54;;;;;;;17.20;8.60;;;;;;;;;;5012788;28;20058;-70
2022/01/21 15:20:21;;;;;;;27.27;9.68;;;;;;;;;;5008946;28;20054;-70
2022/01/21 15:22:48;;;;;;;26.15;11.18;;;;;;;;;;5014051;28;20050;-70
2022/01/21 15:25:15;;;;;;;49.63;17.83;;;;;;;;;;4997534;28;20109;-69
2022/01/21 15:27:42;;;;;;;36.47;14.07;;;;;;;;;;5011855;28;20041;-69
2022/01/21 15:30:09;;;;;;;54.40;19.98;;;;;;;;;;5013324;28;20046;-69
2022/01/21 15:32:36;;;;;;;46.00;18.13;;;;;;;;;;5013154;28;20096;-69
2022/01/21 15:35:03;;;;;;;67.45;29.02;;;;;;;;;;5013239;28;20497;-70
2022/01/21 15:37:30;;;;;;;28.60;14.23;;;;;;;;;;5011298;28;20123;-70
2022/01/21 15:39:56;;;;;;;11.68;6.78;;;;;;;;;;5012895;28;20537;-70
2022/01/21 15:42:23;;;;;;;10.95;6.43;;;;;;;;;;5012604;28;20054;-69
2022/01/21 15:44:49;;;;;;;13.93;8.23;;;;;;;;;;5012469;28;20041;-69